Pagrindinis puslapis
METAR-TAF:

METAR-TAF

Oro uostai :

Şırnak, Turkija

platuma: 37-21-50N, ilguma: 42-03-36E, Aukštis: 621 m

Dabartinis oras

Ataskaita buvo paskelbta 51 minutes, ne 01:50 UTC
Vėjas 10 kt iš Pietvakarių
Temperatūra 20°C
Drėgmė 43%
Slėgis 1009 hPa
Matomumas 10 km arba daugiau
nėra debesų žemiau 1500 m ir nėra kamuolinių lietaus debesų

METAR: LTCV 170150Z 23010KT CAVOK 20/07 Q1009

Laikas: 05:41 (02:41 UTC)

Prognozė

Ataskaita buvo paskelbta 4 valandos ir 1 minutes, ne 22:40 UTC
Prognozė galioja nuo 17 metu 00 UTC su 17 metu 24 UTC
Vėjas 8 kt iš Vakarų
Matomumas 10 km arba daugiau
nėra debesų žemiau 1500 m ir nėra kamuolinių lietaus debesų

TAF: LTCV 162240Z 1700/1724 28008KT CAVOK

Orai ataskaitas ir orų prognozės (METAR, TAF).

turimą stotys yra geltonos ir raudonos taškus žemėlapyje.

Perkelti pele per norėdami pamatyti stoties vardą.

Tada spustelėkite, norėdami matyti oro stebėjimo ir prognozės.

Norėdami pakeisti žemėlapį: spustelėkite ant žalios mygtukų su juodo kryžiaus žemyn,; žalią mygtuką su brūkšneliu, jei norite nutolinti; arba žalių rodyklių gretimoms žemėlapius.


METAR-TAF: